createdAt,value
2022-08-10T00:00:35.080Z,24.81
2022-08-10T00:03:02.724Z,24.93
2022-08-10T00:05:43.546Z,24.87
2022-08-10T00:08:23.587Z,24.82
2022-08-10T00:10:55.956Z,24.82
2022-08-10T00:13:24.433Z,24.75
2022-08-10T00:15:54.903Z,24.74
2022-08-10T00:18:34.886Z,24.71
2022-08-10T00:21:07.554Z,24.65
2022-08-10T00:23:36.199Z,24.69
2022-08-10T00:26:04.243Z,24.61
2022-08-10T00:28:31.155Z,24.60
2022-08-10T00:30:58.087Z,24.55
2022-08-10T00:33:25.259Z,24.60
2022-08-10T00:35:51.987Z,24.59
2022-08-10T00:38:18.789Z,24.58
2022-08-10T00:40:46.255Z,24.48
2022-08-10T00:43:13.145Z,24.46
2022-08-10T00:45:40.107Z,24.39
2022-08-10T00:48:07.152Z,24.34
2022-08-10T00:50:34.537Z,24.37
2022-08-10T00:53:02.089Z,24.27
2022-08-10T00:55:29.028Z,24.23
2022-08-10T00:57:56.584Z,24.18
2022-08-10T01:00:24.609Z,24.10
2022-08-10T01:02:51.995Z,24.18
2022-08-10T01:05:20.571Z,24.06
2022-08-10T01:08:02.220Z,24.12
2022-08-10T01:10:31.834Z,24.19
2022-08-10T01:13:13.893Z,24.01
2022-08-10T01:15:57.034Z,23.95
2022-08-10T01:18:39.927Z,24.07
2022-08-10T01:21:21.636Z,24.12
2022-08-10T01:24:19.986Z,24.12
2022-08-10T01:26:58.234Z,24.13
2022-08-10T01:29:49.927Z,23.94
2022-08-10T01:32:24.450Z,23.80
2022-08-10T01:34:59.790Z,23.93
2022-08-10T01:37:32.324Z,23.88
2022-08-10T01:40:02.570Z,23.86
2022-08-10T01:42:33.199Z,23.82
2022-08-10T01:45:04.720Z,23.88
2022-08-10T01:47:56.789Z,23.86
2022-08-10T01:50:33.736Z,23.77
2022-08-10T01:53:09.706Z,23.70
2022-08-10T01:55:38.425Z,23.72
2022-08-10T01:58:07.827Z,23.78
2022-08-10T02:00:38.765Z,23.75
2022-08-10T02:03:08.994Z,23.73
2022-08-10T02:05:39.338Z,23.72
2022-08-10T02:08:11.589Z,23.63
2022-08-10T02:10:40.737Z,23.66
2022-08-10T02:13:10.067Z,23.67
2022-08-10T02:15:39.189Z,23.69
2022-08-10T02:18:26.988Z,23.71
2022-08-10T02:20:54.642Z,23.68
2022-08-10T02:23:25.516Z,23.74
2022-08-10T02:25:54.725Z,23.73
2022-08-10T02:28:29.715Z,23.80
2022-08-10T02:31:02.975Z,23.85
2022-08-10T02:33:37.067Z,23.75
2022-08-10T02:36:06.792Z,23.82
2022-08-10T02:38:59.001Z,23.74
2022-08-10T02:45:13.075Z,23.87
2022-08-10T02:45:26.187Z,23.81
2022-08-10T02:47:51.589Z,23.84
2022-08-10T02:50:31.971Z,23.86
2022-08-10T02:53:06.410Z,23.89
2022-08-10T02:55:45.032Z,23.94
2022-08-10T02:58:18.110Z,23.89
2022-08-10T03:00:53.700Z,23.85
2022-08-10T03:03:28.968Z,23.81
2022-08-10T03:06:02.054Z,23.73
2022-08-10T03:08:34.089Z,23.73
2022-08-10T03:11:04.030Z,23.66
2022-08-10T03:13:33.165Z,23.66
2022-08-10T03:16:04.495Z,23.37
2022-08-10T03:18:33.571Z,23.69
2022-08-10T03:21:01.788Z,23.58
2022-08-10T03:23:29.444Z,23.77
2022-08-10T03:25:59.264Z,23.52
2022-08-10T03:28:32.381Z,23.70
2022-08-10T03:31:01.826Z,23.67
2022-08-10T03:33:35.832Z,23.71
2022-08-10T03:36:43.890Z,23.77
2022-08-10T03:38:52.017Z,23.75
2022-08-10T03:41:25.768Z,23.76
2022-08-10T03:43:58.649Z,23.67
2022-08-10T03:46:28.281Z,23.75
2022-08-10T03:48:57.934Z,23.72
2022-08-10T03:51:27.791Z,23.64
2022-08-10T03:54:03.138Z,23.79
2022-08-10T03:56:35.757Z,23.82
2022-08-10T03:59:02.907Z,23.85
2022-08-10T04:02:45.680Z,23.91
2022-08-10T04:04:22.793Z,23.96
2022-08-10T04:06:54.639Z,23.96
2022-08-10T04:09:23.762Z,23.93
2022-08-10T04:11:50.592Z,24.05
2022-08-10T04:14:38.584Z,24.04
2022-08-10T04:17:04.237Z,23.90
2022-08-10T04:19:38.055Z,23.96
2022-08-10T04:22:10.530Z,23.97
2022-08-10T04:24:40.116Z,23.94
2022-08-10T04:27:07.218Z,24.02
2022-08-10T04:29:34.211Z,23.94
2022-08-10T04:32:03.364Z,24.07
2022-08-10T04:34:34.110Z,24.28
2022-08-10T04:37:08.843Z,24.46
2022-08-10T04:39:36.654Z,24.53
2022-08-10T04:42:04.210Z,24.62
2022-08-10T04:44:31.160Z,24.63
2022-08-10T04:46:59.412Z,24.79
2022-08-10T04:49:54.343Z,24.97
2022-08-10T04:52:14.010Z,25.14
2022-08-10T04:54:41.760Z,25.15
2022-08-10T04:57:09.095Z,25.21
2022-08-10T04:59:36.361Z,25.22
2022-08-10T05:02:28.836Z,25.02
2022-08-10T05:04:50.080Z,25.44
2022-08-10T05:07:18.181Z,25.63
2022-08-10T05:10:04.613Z,25.61
2022-08-10T05:12:39.380Z,25.67
2022-08-10T05:15:08.393Z,25.54
2022-08-10T05:17:36.178Z,25.75
2022-08-10T05:20:08.839Z,25.89
2022-08-10T05:22:38.306Z,25.94
2022-08-10T05:25:06.836Z,26.16
2022-08-10T05:27:34.084Z,26.45
2022-08-10T05:30:02.759Z,26.37
2022-08-10T05:32:56.714Z,26.44
2022-08-10T05:35:24.131Z,26.40
2022-08-10T05:38:10.083Z,26.43
2022-08-10T05:40:46.217Z,26.71
2022-08-10T05:43:16.761Z,26.80
2022-08-10T05:46:17.736Z,26.82
2022-08-10T05:48:55.763Z,26.95
2022-08-10T05:51:19.233Z,27.15
2022-08-10T05:54:01.791Z,27.19
2022-08-10T05:56:56.746Z,27.30
2022-08-10T06:00:33.004Z,27.25
2022-08-10T06:02:34.011Z,27.34
2022-08-10T06:04:57.279Z,27.00
2022-08-10T06:07:29.776Z,27.28
2022-08-10T06:09:59.214Z,27.48
2022-08-10T06:12:30.657Z,27.47
2022-08-10T06:15:05.050Z,27.71
2022-08-10T06:17:32.812Z,27.94
2022-08-10T06:20:01.251Z,28.03
2022-08-10T06:22:32.424Z,28.14
2022-08-10T06:25:32.345Z,28.25
2022-08-10T06:27:49.772Z,27.95
2022-08-10T06:30:20.843Z,27.98
2022-08-10T06:32:52.728Z,28.29
2022-08-10T06:35:20.627Z,28.40
2022-08-10T06:37:50.936Z,28.53
2022-08-10T06:40:20.140Z,28.31
2022-08-10T06:42:50.270Z,28.24
2022-08-10T06:45:21.429Z,28.56
2022-08-10T06:48:10.279Z,29.18
2022-08-10T06:50:57.872Z,29.11
2022-08-10T06:53:54.326Z,29.14
2022-08-10T06:56:37.707Z,29.01
2022-08-10T06:59:27.494Z,28.81
2022-08-10T07:01:59.812Z,28.60
2022-08-10T07:04:31.992Z,29.17
2022-08-10T07:07:04.092Z,29.53
2022-08-10T07:09:33.469Z,29.41
2022-08-10T07:12:07.761Z,29.57
2022-08-10T07:14:41.434Z,29.93
2022-08-10T07:17:15.877Z,29.88
2022-08-10T07:19:49.903Z,29.80
2022-08-10T07:23:27.001Z,29.70
2022-08-10T07:25:08.402Z,29.61
2022-08-10T07:27:39.299Z,30.22
2022-08-10T07:30:23.064Z,29.94
2022-08-10T07:32:52.598Z,30.46
2022-08-10T07:35:21.971Z,30.73
2022-08-10T07:37:52.028Z,31.16
2022-08-10T07:40:21.273Z,31.12
2022-08-10T07:42:52.445Z,31.26
2022-08-10T07:45:19.672Z,30.90
2022-08-10T07:47:54.242Z,30.56
2022-08-10T07:50:24.721Z,29.73
2022-08-10T07:52:55.445Z,29.50
2022-08-10T07:56:02.143Z,29.83
2022-08-10T07:58:11.554Z,30.29
2022-08-10T08:00:39.697Z,30.18
2022-08-10T08:03:09.422Z,29.78
2022-08-10T08:05:58.075Z,30.85
2022-08-10T08:08:28.886Z,31.27
2022-08-10T08:10:58.260Z,31.18
2022-08-10T08:13:26.768Z,31.74
2022-08-10T08:16:18.399Z,31.18
2022-08-10T08:18:54.265Z,31.93
2022-08-10T08:24:14.785Z,31.98
2022-08-10T08:24:33.466Z,32.56
2022-08-10T08:27:05.845Z,31.18
2022-08-10T08:29:35.261Z,31.01
2022-08-10T08:32:04.406Z,31.62
2022-08-10T08:34:37.852Z,31.28
2022-08-10T08:37:07.426Z,31.24
2022-08-10T08:39:36.970Z,31.63
2022-08-10T08:42:04.478Z,32.03
2022-08-10T08:44:40.434Z,31.13
2022-08-10T08:48:03.327Z,31.72
2022-08-10T08:50:44.313Z,31.82
2022-08-10T08:54:02.526Z,31.65
2022-08-10T08:56:49.999Z,31.44
2022-08-10T08:59:37.259Z,31.71
2022-08-10T09:02:41.323Z,32.30
2022-08-10T09:05:26.669Z,32.41
2022-08-10T09:08:36.264Z,32.50
2022-08-10T09:11:13.828Z,32.53
2022-08-10T09:13:57.877Z,31.83
2022-08-10T09:16:44.430Z,31.40
2022-08-10T09:19:38.468Z,31.82
2022-08-10T09:22:19.116Z,32.53
2022-08-10T09:24:59.554Z,31.99
2022-08-10T09:27:43.239Z,31.49
2022-08-10T09:30:13.599Z,32.44
2022-08-10T09:36:14.702Z,32.92
2022-08-10T09:36:24.065Z,32.38
2022-08-10T09:39:01.332Z,32.42
2022-08-10T09:41:36.853Z,32.90
2022-08-10T09:48:01.904Z,31.27
2022-08-10T09:51:41.730Z,30.87
2022-08-10T09:54:07.801Z,31.57
2022-08-10T09:57:24.465Z,32.02
2022-08-10T10:00:15.319Z,32.05
2022-08-10T10:03:10.076Z,31.89
2022-08-10T10:05:52.003Z,32.47
2022-08-10T10:08:22.217Z,32.21
2022-08-10T10:11:04.131Z,32.27
2022-08-10T10:14:17.842Z,31.99
2022-08-10T10:17:32.263Z,31.62
2022-08-10T10:20:39.057Z,32.71
2022-08-10T10:23:08.619Z,32.22
2022-08-10T10:25:50.089Z,31.96
2022-08-10T10:28:44.361Z,31.88
2022-08-10T10:31:26.981Z,32.12
2022-08-10T10:34:16.630Z,32.29
2022-08-10T10:36:46.080Z,32.57
2022-08-10T10:39:14.668Z,31.68
2022-08-10T10:42:03.942Z,31.77
2022-08-10T10:44:41.590Z,31.71
2022-08-10T10:47:24.257Z,31.82
2022-08-10T10:50:26.208Z,31.67
2022-08-10T10:53:25.176Z,31.79
2022-08-10T10:56:16.465Z,31.97
2022-08-10T10:59:54.567Z,31.94
2022-08-10T11:02:17.588Z,31.99
2022-08-10T11:05:14.022Z,31.67
2022-08-10T11:07:53.479Z,32.34
2022-08-10T11:10:32.925Z,31.83
2022-08-10T11:14:25.529Z,32.10
2022-08-10T11:16:16.977Z,31.81
2022-08-10T11:19:02.431Z,31.39
2022-08-10T11:21:43.662Z,30.95
2022-08-10T11:24:49.103Z,31.51
2022-08-10T11:27:23.635Z,31.38
2022-08-10T11:30:06.058Z,31.77
2022-08-10T11:32:43.092Z,31.96
2022-08-10T11:35:22.612Z,32.05
2022-08-10T11:38:32.308Z,31.82
2022-08-10T11:41:05.568Z,32.16
2022-08-10T11:44:29.956Z,31.62
2022-08-10T11:47:05.004Z,31.94
2022-08-10T11:50:07.329Z,32.20
2022-08-10T11:52:40.550Z,32.18
2022-08-10T11:55:21.001Z,31.86
2022-08-10T11:57:54.351Z,32.13
2022-08-10T12:00:24.486Z,32.26
2022-08-10T12:02:56.994Z,32.35
2022-08-10T12:05:52.617Z,32.79
2022-08-10T12:10:07.865Z,32.87
2022-08-10T12:11:23.836Z,32.94
2022-08-10T12:14:21.717Z,33.11
2022-08-10T12:16:52.840Z,32.77
2022-08-10T12:20:02.834Z,33.16
2022-08-10T12:22:57.563Z,33.42
2022-08-10T12:25:55.646Z,33.55
2022-08-10T12:28:50.466Z,33.04
2022-08-10T12:31:23.607Z,33.00
2022-08-10T12:34:10.040Z,33.30
2022-08-10T12:36:41.981Z,33.65
2022-08-10T12:39:31.328Z,33.83
2022-08-10T12:42:10.596Z,34.18
2022-08-10T12:44:48.479Z,33.04
2022-08-10T12:48:16.756Z,32.11
2022-08-10T12:51:09.618Z,33.00
2022-08-10T12:54:07.616Z,33.45
2022-08-10T12:56:42.478Z,32.43
2022-08-10T12:59:14.555Z,31.89
2022-08-10T13:02:07.407Z,31.80
2022-08-10T13:04:35.281Z,31.44
2022-08-10T13:07:04.271Z,32.38
2022-08-10T13:09:32.643Z,31.49
2022-08-10T13:12:37.151Z,32.52
2022-08-10T13:15:45.803Z,33.86
2022-08-10T13:18:18.429Z,32.79
2022-08-10T13:20:53.780Z,33.18
2022-08-10T13:23:29.249Z,34.29
2022-08-10T13:25:59.642Z,33.83
2022-08-10T13:28:45.629Z,33.20
2022-08-10T13:31:18.132Z,33.48
2022-08-10T13:34:39.914Z,33.91
2022-08-10T13:36:47.744Z,34.07
2022-08-10T13:39:19.919Z,33.89
2022-08-10T13:41:48.555Z,33.95
2022-08-10T13:44:32.785Z,33.53
2022-08-10T13:47:00.145Z,33.61
2022-08-10T13:49:30.520Z,34.08
2022-08-10T13:51:58.670Z,32.84
2022-08-10T13:54:29.209Z,31.49
2022-08-10T13:56:58.131Z,30.90
2022-08-10T14:00:33.797Z,30.89
2022-08-10T14:02:24.155Z,31.74
2022-08-10T14:04:53.021Z,32.06
2022-08-10T14:07:20.537Z,32.29
2022-08-10T14:09:52.418Z,32.02
2022-08-10T14:12:32.021Z,32.10
2022-08-10T14:15:05.137Z,32.34
2022-08-10T14:17:33.133Z,33.17
2022-08-10T14:20:03.453Z,32.89
2022-08-10T14:22:33.550Z,31.85
2022-08-10T14:25:09.516Z,31.91
2022-08-10T14:28:01.809Z,32.14
2022-08-10T14:30:29.583Z,31.51
2022-08-10T14:33:04.205Z,31.26
2022-08-10T14:36:21.955Z,30.75
2022-08-10T14:38:26.912Z,30.57
2022-08-10T14:40:57.214Z,30.47
2022-08-10T14:43:48.277Z,30.17
2022-08-10T14:46:20.915Z,29.87
2022-08-10T14:48:50.385Z,29.72
2022-08-10T14:51:26.392Z,29.84
2022-08-10T14:53:56.463Z,29.81
2022-08-10T14:56:34.729Z,29.65
2022-08-10T14:59:06.849Z,29.72
2022-08-10T15:02:00.343Z,29.58
2022-08-10T15:04:28.540Z,29.75
2022-08-10T15:07:04.278Z,29.54
2022-08-10T15:10:00.848Z,29.69
2022-08-10T15:12:40.536Z,29.66
2022-08-10T15:15:16.520Z,29.72
2022-08-10T15:17:52.874Z,29.56
2022-08-10T15:20:23.568Z,29.43
2022-08-10T15:23:01.409Z,29.45
2022-08-10T15:25:30.663Z,29.50
2022-08-10T15:28:08.355Z,29.29
2022-08-10T15:30:43.146Z,29.20
2022-08-10T15:33:57.480Z,29.25
2022-08-10T15:36:40.963Z,29.25
2022-08-10T15:39:16.706Z,29.15
2022-08-10T15:42:00.885Z,29.13
2022-08-10T15:44:43.614Z,29.16
2022-08-10T15:47:45.751Z,29.05
2022-08-10T15:50:25.380Z,28.95
2022-08-10T15:53:02.783Z,28.89
2022-08-10T15:55:53.350Z,28.79
2022-08-10T15:58:39.981Z,28.79
2022-08-10T16:02:13.463Z,28.74
2022-08-10T16:04:08.809Z,28.79
2022-08-10T16:06:51.361Z,28.69
2022-08-10T16:10:24.514Z,28.63
2022-08-10T16:12:29.635Z,28.77
2022-08-10T16:15:04.498Z,28.69
2022-08-10T16:17:54.699Z,28.51
2022-08-10T16:20:32.586Z,28.46
2022-08-10T16:23:05.438Z,28.41
2022-08-10T16:25:48.227Z,28.35
2022-08-10T16:28:23.682Z,28.33
2022-08-10T16:30:55.905Z,28.21
2022-08-10T16:33:27.490Z,28.25
2022-08-10T16:36:17.237Z,28.25
2022-08-10T16:38:47.089Z,28.11
2022-08-10T16:42:04.414Z,28.25
2022-08-10T16:44:05.646Z,28.21
2022-08-10T16:46:34.286Z,28.16
2022-08-10T16:49:02.653Z,28.05
2022-08-10T16:51:31.085Z,27.85
2022-08-10T16:54:02.224Z,27.84
2022-08-10T16:56:34.329Z,27.92
2022-08-10T16:59:20.701Z,27.87
2022-08-10T17:01:51.485Z,27.82
2022-08-10T17:04:23.754Z,27.57
2022-08-10T17:07:07.482Z,27.49
2022-08-10T17:09:37.626Z,27.46
2022-08-10T17:12:11.830Z,27.35
2022-08-10T17:14:41.724Z,27.25
2022-08-10T17:17:37.722Z,27.17
2022-08-10T17:20:30.692Z,27.15
2022-08-10T17:23:00.765Z,26.91
2022-08-10T17:25:46.409Z,26.82
2022-08-10T17:28:35.504Z,26.77
2022-08-10T17:31:24.022Z,26.59
2022-08-10T17:34:00.325Z,26.70
2022-08-10T17:36:34.113Z,26.48
2022-08-10T17:39:02.632Z,26.40
2022-08-10T17:41:33.431Z,26.48
2022-08-10T17:44:03.613Z,26.55
2022-08-10T17:46:44.689Z,26.46
2022-08-10T17:49:17.025Z,26.34
2022-08-10T17:51:50.914Z,26.34
2022-08-10T17:54:27.180Z,26.31
2022-08-10T17:56:58.574Z,26.39
2022-08-10T17:59:28.692Z,26.35
2022-08-10T18:02:08.613Z,26.35
2022-08-10T18:04:41.587Z,26.25
2022-08-10T18:07:10.881Z,26.27
2022-08-10T18:09:53.821Z,26.25
2022-08-10T18:12:34.477Z,26.15
2022-08-10T18:15:11.945Z,26.17
2022-08-10T18:17:44.898Z,26.19
2022-08-10T18:20:19.846Z,26.21
2022-08-10T18:22:49.958Z,26.02
2022-08-10T18:25:20.825Z,26.19
2022-08-10T18:28:04.056Z,25.90
2022-08-10T18:30:36.368Z,26.07
2022-08-10T18:33:05.263Z,26.10
2022-08-10T18:35:34.882Z,25.96
2022-08-10T18:38:04.294Z,26.03
2022-08-10T18:40:36.170Z,25.96
2022-08-10T18:44:05.752Z,25.87
2022-08-10T18:46:01.312Z,25.85
2022-08-10T18:48:42.221Z,25.78
2022-08-10T18:51:12.383Z,25.77
2022-08-10T18:53:48.548Z,25.80
2022-08-10T18:56:38.568Z,25.78
2022-08-10T18:59:05.285Z,25.66
2022-08-10T19:01:50.729Z,25.54
2022-08-10T19:04:54.780Z,25.57
2022-08-10T19:07:43.645Z,25.54
2022-08-10T19:10:27.943Z,25.52
2022-08-10T19:13:23.957Z,25.49
2022-08-10T19:16:21.315Z,25.32
2022-08-10T19:18:51.141Z,25.35
2022-08-10T19:21:34.764Z,25.20
2022-08-10T19:24:32.684Z,25.28
2022-08-10T19:27:31.781Z,25.32
2022-08-10T19:30:12.794Z,25.22
2022-08-10T19:32:52.713Z,25.19
2022-08-10T19:36:03.616Z,25.08
2022-08-10T19:38:56.732Z,25.17
2022-08-10T19:42:11.118Z,25.06
2022-08-10T19:46:00.774Z,24.93
2022-08-10T19:48:17.887Z,24.96
2022-08-10T19:50:51.872Z,24.81
2022-08-10T19:53:37.506Z,24.95
2022-08-10T19:56:33.490Z,24.88
2022-08-10T19:59:17.235Z,24.87
2022-08-10T20:02:04.654Z,24.71
2022-08-10T20:04:37.158Z,24.71
2022-08-10T20:07:23.545Z,24.65
2022-08-10T20:10:00.469Z,24.60
2022-08-10T20:12:33.501Z,24.60
2022-08-10T20:15:03.258Z,24.60
2022-08-10T20:17:56.325Z,24.39
2022-08-10T20:20:48.591Z,24.37
2022-08-10T20:23:26.512Z,24.28
2022-08-10T20:26:21.484Z,24.16
2022-08-10T20:29:16.382Z,24.10
2022-08-10T20:32:06.179Z,24.02
2022-08-10T20:34:47.858Z,23.92
2022-08-10T20:38:01.925Z,23.89
2022-08-10T20:40:28.486Z,23.95
2022-08-10T20:43:03.807Z,23.99
2022-08-10T20:46:07.021Z,23.94
2022-08-10T20:48:42.980Z,23.96
2022-08-10T20:51:15.172Z,23.90
2022-08-10T20:53:50.114Z,24.00
2022-08-10T20:56:35.641Z,23.95
2022-08-10T20:59:20.594Z,23.90
2022-08-10T21:02:20.860Z,23.89
2022-08-10T21:05:01.209Z,23.82
2022-08-10T21:08:00.970Z,23.95
2022-08-10T21:10:27.253Z,23.89
2022-08-10T21:13:03.037Z,23.74
2022-08-10T21:16:03.556Z,23.96
2022-08-10T21:18:51.987Z,24.00
2022-08-10T21:22:01.385Z,23.76
2022-08-10T21:24:35.818Z,23.67
2022-08-10T21:27:13.079Z,23.67
2022-08-10T21:29:55.994Z,23.60
2022-08-10T21:32:40.890Z,23.42
2022-08-10T21:35:36.775Z,23.40
2022-08-10T21:38:21.360Z,23.19
2022-08-10T21:41:18.565Z,23.06
2022-08-10T21:44:15.406Z,22.98
2022-08-10T21:47:07.505Z,23.06
2022-08-10T21:50:07.114Z,22.98
2022-08-10T21:53:08.187Z,22.87
2022-08-10T21:56:17.188Z,22.83
2022-08-10T21:59:12.251Z,22.87
2022-08-10T22:02:09.907Z,22.90
2022-08-10T22:04:55.553Z,22.99
2022-08-10T22:07:43.277Z,23.02
2022-08-10T22:10:30.891Z,22.83
2022-08-10T22:13:22.914Z,22.74
2022-08-10T22:16:13.864Z,22.69
2022-08-10T22:19:03.884Z,22.59
2022-08-10T22:21:57.017Z,22.53
2022-08-10T22:24:48.054Z,22.51
2022-08-10T22:27:50.536Z,22.29
2022-08-10T22:30:38.090Z,22.20
2022-08-10T22:33:49.250Z,21.82
2022-08-10T22:36:59.533Z,21.79
2022-08-10T22:40:05.875Z,21.70
2022-08-10T22:43:10.848Z,21.65
2022-08-10T22:46:11.079Z,21.72
2022-08-10T22:49:01.303Z,21.68
2022-08-10T22:51:31.118Z,21.52
2022-08-10T22:54:31.391Z,21.55
2022-08-10T22:57:21.508Z,21.51
2022-08-10T22:59:49.805Z,21.43
2022-08-10T23:05:42.620Z,21.46
2022-08-10T23:08:19.584Z,21.39
2022-08-10T23:11:04.439Z,21.33
2022-08-10T23:13:36.314Z,21.22
2022-08-10T23:16:46.521Z,21.26
2022-08-10T23:19:24.808Z,21.29
2022-08-10T23:22:04.479Z,21.28
2022-08-10T23:24:41.412Z,21.24
2022-08-10T23:27:13.101Z,21.34
2022-08-10T23:30:09.579Z,21.35
2022-08-10T23:32:40.970Z,21.29
2022-08-10T23:36:29.469Z,21.39
2022-08-10T23:38:02.040Z,21.30
2022-08-10T23:40:29.273Z,21.26
2022-08-10T23:42:57.506Z,21.38
2022-08-10T23:45:27.213Z,21.23
2022-08-10T23:47:58.488Z,21.28
2022-08-10T23:50:28.373Z,20.68
2022-08-10T23:53:00.437Z,21.22
2022-08-10T23:55:48.954Z,21.10
2022-08-10T23:58:31.644Z,21.13
